Time,TemperatureF,DewpointF,PressureIn,WindDirection,WindDirectionDegrees,WindSpeedMPH,WindSpeedGustMPH,Humidity,HourlyPrecipIn,Conditions,Clouds,dailyrainin,SoftwareType,DateUTC
2013-07-16 00:03:00,68.4,67.8,30.28,NW,315,0.0,-999.0,98,-99.99,,,0.00,Acu-Link.com,2013-07-16 04:03:00,
2013-07-16 00:18:00,68.4,67.8,30.28,NW,315,0.0,-999.0,98,-99.99,,,0.00,Acu-Link.com,2013-07-16 04:18:00,
2013-07-16 00:33:00,68.5,67.9,30.28,West,270,0.0,-999.0,98,-99.99,,,0.00,Acu-Link.com,2013-07-16 04:33:00,
2013-07-16 00:48:00,68.5,67.9,30.27,NW,315,0.0,-999.0,98,-99.99,,,0.00,Acu-Link.com,2013-07-16 04:48:00,
2013-07-16 01:03:00,68.5,67.9,30.27,West,270,0.0,-999.0,98,-99.99,,,0.00,Acu-Link.com,2013-07-16 05:03:00,
2013-07-16 01:19:00,68.7,68.1,30.29,West,270,0.0,-999.0,98,-99.99,,,0.00,Acu-Link.com,2013-07-16 05:19:00,
2013-07-16 01:34:00,68.9,68.3,30.28,WNW,292,0.0,-999.0,98,-99.99,,,0.00,Acu-Link.com,2013-07-16 05:34:00,
2013-07-16 01:49:00,68.5,67.9,30.28,West,270,0.0,-999.0,98,-99.99,,,0.00,Acu-Link.com,2013-07-16 05:49:00,
2013-07-16 02:05:00,68.5,67.9,30.27,West,270,0.0,-999.0,98,-99.99,,,0.00,Acu-Link.com,2013-07-16 06:05:00,
2013-07-16 02:20:00,68.5,67.9,30.26,WNW,292,0.0,-999.0,98,-99.99,,,0.00,Acu-Link.com,2013-07-16 06:20:00,
2013-07-16 02:35:00,68.4,67.8,30.26,West,270,0.0,-999.0,98,-99.99,,,0.00,Acu-Link.com,2013-07-16 06:35:00,
2013-07-16 02:51:00,68.4,67.8,30.26,West,270,0.0,-999.0,98,-99.99,,,0.00,Acu-Link.com,2013-07-16 06:51:00,
2013-07-16 03:06:00,68.4,67.8,30.26,West,270,0.0,-999.0,98,-99.99,,,0.00,Acu-Link.com,2013-07-16 07:06:00,
2013-07-16 03:21:00,68.4,67.8,30.27,WNW,292,0.0,-999.0,98,-99.99,,,0.00,Acu-Link.com,2013-07-16 07:21:00,
2013-07-16 03:36:00,68.2,67.6,30.26,WNW,292,0.0,-999.0,98,-99.99,,,0.00,Acu-Link.com,2013-07-16 07:36:00,
2013-07-16 03:51:00,68.0,67.4,30.26,West,270,0.0,-999.0,98,-99.99,,,0.00,Acu-Link.com,2013-07-16 07:51:00,
2013-07-16 04:07:00,68.0,67.4,30.26,West,270,0.0,-999.0,98,-99.99,,,0.00,Acu-Link.com,2013-07-16 08:07:00,
2013-07-16 04:22:00,67.6,67.0,30.25,West,270,0.0,-999.0,98,-99.99,,,0.00,Acu-Link.com,2013-07-16 08:22:00,
2013-07-16 04:37:00,67.5,66.9,30.25,WNW,292,0.0,-999.0,98,-99.99,,,0.00,Acu-Link.com,2013-07-16 08:37:00,
2013-07-16 04:53:00,67.1,66.5,30.24,WNW,292,0.0,-999.0,98,-99.99,,,0.00,Acu-Link.com,2013-07-16 08:53:00,
2013-07-16 05:08:00,67.1,66.5,30.24,WNW,292,0.0,-999.0,98,-99.99,,,0.00,Acu-Link.com,2013-07-16 09:08:00,
2013-07-16 05:23:00,66.7,66.1,30.24,WNW,292,0.0,-999.0,98,-99.99,,,0.00,Acu-Link.com,2013-07-16 09:23:00,
2013-07-16 05:38:00,66.7,66.1,30.25,WNW,292,0.0,-999.0,98,-99.99,,,0.00,Acu-Link.com,2013-07-16 09:38:00,
2013-07-16 05:53:00,66.6,66.0,30.26,WNW,292,0.0,-999.0,98,-99.99,,,0.00,Acu-Link.com,2013-07-16 09:53:00,
2013-07-16 06:08:00,66.6,66.0,30.26,WNW,292,0.0,-999.0,98,-99.99,,,0.00,Acu-Link.com,2013-07-16 10:08:00,
2013-07-16 06:24:00,66.7,66.1,30.26,WNW,292,0.0,-999.0,98,-99.99,,,0.00,Acu-Link.com,2013-07-16 10:24:00,
2013-07-16 06:39:00,66.7,66.1,30.26,WNW,292,0.0,-999.0,98,-99.99,,,0.00,Acu-Link.com,2013-07-16 10:39:00,
2013-07-16 06:54:00,66.6,66.0,30.24,WNW,292,1.1,-999.0,98,-99.99,,,0.00,Acu-Link.com,2013-07-16 10:54:00,
2013-07-16 07:10:00,66.6,66.0,30.26,NW,315,1.1,-999.0,98,-99.99,,,0.00,Acu-Link.com,2013-07-16 11:10:00,
2013-07-16 07:25:00,66.7,66.1,30.26,NW,315,1.1,-999.0,98,-99.99,,,0.00,Acu-Link.com,2013-07-16 11:25:00,
2013-07-16 07:40:00,67.1,66.5,30.26,WNW,292,1.7,-999.0,98,-99.99,,,0.00,Acu-Link.com,2013-07-16 11:40:00,
2013-07-16 07:55:00,67.6,67.0,30.27,WNW,292,0.0,-999.0,98,-99.99,,,0.00,Acu-Link.com,2013-07-16 11:55:00,
2013-07-16 08:11:00,69.1,68.5,30.27,WNW,292,0.0,-999.0,98,-99.99,,,0.00,Acu-Link.com,2013-07-16 12:11:00,
2013-07-16 08:26:00,72.1,71.5,30.27,WNW,292,0.0,-999.0,98,-99.99,,,0.00,Acu-Link.com,2013-07-16 12:26:00,
2013-07-16 08:41:00,75.9,75.3,30.28,NNW,337,0.0,-999.0,98,-99.99,,,0.00,Acu-Link.com,2013-07-16 12:41:00,
2013-07-16 08:57:00,79.3,78.7,30.28,SSW,202,0.0,-999.0,98,-99.99,,,0.00,Acu-Link.com,2013-07-16 12:57:00,
2013-07-16 09:12:00,81.0,80.4,30.28,NNE,22,0.0,-999.0,98,-99.99,,,0.00,Acu-Link.com,2013-07-16 13:12:00,
2013-07-16 09:27:00,82.4,81.8,30.28,North,0,0.0,-999.0,98,-99.99,,,0.00,Acu-Link.com,2013-07-16 13:27:00,
2013-07-16 09:43:00,85.6,85.0,30.27,NNE,22,0.0,-999.0,98,-99.99,,,0.00,Acu-Link.com,2013-07-16 13:43:00,
2013-07-16 09:58:00,86.7,86.1,30.29,West,270,2.2,-999.0,98,-99.99,,,0.00,Acu-Link.com,2013-07-16 13:58:00,
2013-07-16 10:13:00,85.8,85.2,30.28,NNE,22,1.7,-999.0,98,-99.99,,,0.00,Acu-Link.com,2013-07-16 14:13:00,
2013-07-16 10:29:00,87.1,86.5,30.27,NW,315,1.7,-999.0,98,-99.99,,,0.00,Acu-Link.com,2013-07-16 14:29:00,
2013-07-16 10:44:00,89.6,88.3,30.28,NNE,22,2.2,-999.0,96,-99.99,,,0.00,Acu-Link.com,2013-07-16 14:44:00,
2013-07-16 10:59:00,90.7,87.3,30.28,SE,135,3.2,-999.0,90,-99.99,,,0.00,Acu-Link.com,2013-07-16 14:59:00,
2013-07-16 11:14:00,90.7,88.4,30.27,North,0,2.7,-999.0,93,-99.99,,,0.00,Acu-Link.com,2013-07-16 15:14:00,
2013-07-16 11:30:00,90.9,88.9,30.27,WNW,292,0.0,-999.0,94,-99.99,,,0.00,Acu-Link.com,2013-07-16 15:30:00,
2013-07-16 11:45:00,92.1,86.2,30.27,NW,315,0.0,-999.0,83,-99.99,,,0.00,Acu-Link.com,2013-07-16 15:45:00,
2013-07-16 12:00:00,92.7,86.4,30.27,NNW,337,1.1,-999.0,82,-99.99,,,0.00,Acu-Link.com,2013-07-16 16:00:00,
2013-07-16 12:16:00,94.3,85.5,30.27,West,270,2.2,-999.0,76,-99.99,,,0.00,Acu-Link.com,2013-07-16 16:16:00,
2013-07-16 12:31:00,93.9,85.2,30.26,East,90,0.0,-999.0,76,-99.99,,,0.00,Acu-Link.com,2013-07-16 16:31:00,
2013-07-16 12:46:00,94.1,84.9,30.26,SSE,157,1.7,-999.0,75,-99.99,,,0.00,Acu-Link.com,2013-07-16 16:46:00,
2013-07-16 13:01:00,95.7,87.3,30.26,NW,315,1.7,-999.0,77,-99.99,,,0.00,Acu-Link.com,2013-07-16 17:01:00,
2013-07-16 13:17:00,93.9,87.2,30.27,South,180,0.0,-999.0,81,-99.99,,,0.00,Acu-Link.com,2013-07-16 17:17:00,
2013-07-16 13:32:00,97.0,83.2,30.26,NNW,337,0.0,-999.0,65,-99.99,,,0.00,Acu-Link.com,2013-07-16 17:32:00,
2013-07-16 13:47:00,97.5,85.6,30.25,NNE,22,0.0,-999.0,69,-99.99,,,0.00,Acu-Link.com,2013-07-16 17:47:00,
2013-07-16 14:03:00,96.3,84.0,30.24,West,270,1.1,-999.0,68,-99.99,,,0.00,Acu-Link.com,2013-07-16 18:03:00,
2013-07-16 14:18:00,97.9,84.1,30.24,SE,135,1.1,-999.0,65,-99.99,,,0.00,Acu-Link.com,2013-07-16 18:18:00,
2013-07-16 14:33:00,100.6,83.1,30.24,SE,135,2.2,-999.0,58,-99.99,,,0.00,Acu-Link.com,2013-07-16 18:33:00,
2013-07-16 14:48:00,99.3,84.9,30.23,NE,45,1.7,-999.0,64,-99.99,,,0.00,Acu-Link.com,2013-07-16 18:48:00,
2013-07-16 15:04:00,99.3,82.9,30.23,ENE,67,0.0,-999.0,60,-99.99,,,0.00,Acu-Link.com,2013-07-16 19:04:00,
2013-07-16 15:19:00,99.5,87.0,30.23,NNE,22,0.0,-999.0,68,-99.99,,,0.00,Acu-Link.com,2013-07-16 19:19:00,
2013-07-16 15:34:00,100.9,84.4,30.22,WNW,292,0.0,-999.0,60,-99.99,,,0.00,Acu-Link.com,2013-07-16 19:34:00,
2013-07-16 15:49:00,98.2,84.4,30.23,SSE,157,1.7,-999.0,65,-99.99,,,0.00,Acu-Link.com,2013-07-16 19:49:00,
2013-07-16 16:05:00,99.5,85.1,30.22,SE,135,0.0,-999.0,64,-99.99,,,0.00,Acu-Link.com,2013-07-16 20:05:00,
2013-07-16 16:20:00,99.0,84.1,30.22,East,90,0.0,-999.0,63,-99.99,,,0.00,Acu-Link.com,2013-07-16 20:20:00,
2013-07-16 16:35:00,94.6,81.9,30.21,South,180,1.7,-999.0,67,-99.99,,,0.00,Acu-Link.com,2013-07-16 20:35:00,
2013-07-16 16:51:00,94.1,80.5,30.22,WSW,247,2.2,-999.0,65,-99.99,,,0.00,Acu-Link.com,2013-07-16 20:51:00,
2013-07-16 17:06:00,94.8,79.7,30.22,SSE,157,2.7,-999.0,62,-99.99,,,0.00,Acu-Link.com,2013-07-16 21:06:00,
2013-07-16 17:21:00,95.5,81.3,30.22,SSW,202,0.0,-999.0,64,-99.99,,,0.00,Acu-Link.com,2013-07-16 21:21:00,
2013-07-16 17:36:00,95.2,79.1,30.22,SSE,157,0.0,-999.0,60,-99.99,,,0.00,Acu-Link.com,2013-07-16 21:36:00,
2013-07-16 17:52:00,94.6,82.4,30.22,ESE,112,0.0,-999.0,68,-99.99,,,0.00,Acu-Link.com,2013-07-16 21:52:00,
2013-07-16 18:07:00,95.4,79.8,30.22,East,90,0.0,-999.0,61,-99.99,,,0.00,Acu-Link.com,2013-07-16 22:07:00,
2013-07-16 18:22:00,94.6,78.0,30.23,ESE,112,0.0,-999.0,59,-99.99,,,0.00,Acu-Link.com,2013-07-16 22:22:00,
2013-07-16 18:37:00,92.1,78.6,30.23,SSE,157,1.1,-999.0,65,-99.99,,,0.00,Acu-Link.com,2013-07-16 22:37:00,
2013-07-16 18:52:00,86.7,76.6,30.23,South,180,0.0,-999.0,72,-99.99,,,0.00,Acu-Link.com,2013-07-16 22:52:00,
2013-07-16 19:08:00,83.7,76.1,30.22,South,180,0.0,-999.0,78,-99.99,,,0.00,Acu-Link.com,2013-07-16 23:08:00,
2013-07-16 19:23:00,80.8,76.2,30.22,SW,225,0.0,-999.0,86,-99.99,,,0.00,Acu-Link.com,2013-07-16 23:23:00,
2013-07-16 19:38:00,79.0,78.4,30.23,WSW,247,0.0,-999.0,98,-99.99,,,0.00,Acu-Link.com,2013-07-16 23:38:00,
2013-07-16 19:54:00,77.9,77.3,30.25,SW,225,0.0,-999.0,98,-99.99,,,0.00,Acu-Link.com,2013-07-16 23:54:00,
2013-07-16 20:09:00,76.6,76.0,30.24,SW,225,0.0,-999.0,98,-99.99,,,0.00,Acu-Link.com,2013-07-17 00:09:00,
2013-07-16 20:24:00,75.6,75.0,30.24,WNW,292,0.0,-999.0,98,-99.99,,,0.00,Acu-Link.com,2013-07-17 00:24:00,
2013-07-16 20:39:00,74.5,73.9,30.24,WNW,292,0.0,-999.0,98,-99.99,,,0.00,Acu-Link.com,2013-07-17 00:39:00,
2013-07-16 20:55:00,73.6,73.0,30.25,WNW,292,0.0,-999.0,98,-99.99,,,0.00,Acu-Link.com,2013-07-17 00:55:00,
2013-07-16 21:10:00,72.9,72.3,30.24,WNW,292,0.0,-999.0,98,-99.99,,,0.00,Acu-Link.com,2013-07-17 01:10:00,
2013-07-16 21:25:00,72.3,71.7,30.23,WNW,292,0.0,-999.0,98,-99.99,,,0.00,Acu-Link.com,2013-07-17 01:25:00,
2013-07-16 21:41:00,71.8,71.2,30.24,WNW,292,0.0,-999.0,98,-99.99,,,0.00,Acu-Link.com,2013-07-17 01:41:00,
2013-07-16 21:56:00,71.2,70.6,30.24,West,270,0.0,-999.0,98,-99.99,,,0.00,Acu-Link.com,2013-07-17 01:56:00,
2013-07-16 22:11:00,70.9,70.3,30.25,West,270,0.0,-999.0,98,-99.99,,,0.00,Acu-Link.com,2013-07-17 02:11:00,
2013-07-16 22:26:00,70.7,70.1,30.25,West,270,0.0,-999.0,98,-99.99,,,0.00,Acu-Link.com,2013-07-17 02:26:00,
2013-07-16 22:42:00,70.5,69.9,30.25,West,270,0.0,-999.0,98,-99.99,,,0.00,Acu-Link.com,2013-07-17 02:42:00,
2013-07-16 22:57:00,70.3,69.7,30.25,West,270,0.0,-999.0,98,-99.99,,,0.00,Acu-Link.com,2013-07-17 02:57:00,
2013-07-16 23:12:00,70.3,69.7,30.24,West,270,0.0,-999.0,98,-99.99,,,0.00,Acu-Link.com,2013-07-17 03:12:00,
2013-07-16 23:27:00,70.3,69.7,30.23,WNW,292,0.0,-999.0,98,-99.99,,,0.00,Acu-Link.com,2013-07-17 03:27:00,
2013-07-16 23:43:00,70.0,69.4,30.23,West,270,2.2,-999.0,98,-99.99,,,0.00,Acu-Link.com,2013-07-17 03:43:00,
2013-07-16 23:58:00,69.6,69.0,30.25,West,270,1.1,-999.0,98,-99.99,,,0.00,Acu-Link.com,2013-07-17 03:58:00,